createdAt,value
2018-06-30T00:00:51.062Z,16.80
2018-06-30T00:03:19.533Z,16.80
2018-06-30T00:08:16.782Z,16.70
2018-06-30T00:10:45.226Z,16.70
2018-06-30T00:13:13.683Z,16.70
2018-06-30T00:15:42.122Z,16.70
2018-06-30T00:18:10.557Z,16.70
2018-06-30T00:20:39.026Z,16.70
2018-06-30T00:23:07.477Z,16.70
2018-06-30T00:28:04.110Z,16.70
2018-06-30T00:30:32.568Z,16.60
2018-06-30T00:33:00.998Z,16.70
2018-06-30T00:35:29.418Z,16.70
2018-06-30T00:37:57.853Z,16.70
2018-06-30T00:40:26.302Z,16.60
2018-06-30T00:42:54.712Z,16.60
2018-06-30T00:47:51.269Z,16.70
2018-06-30T00:50:19.718Z,16.70
2018-06-30T00:52:48.166Z,16.60
2018-06-30T00:55:16.625Z,16.60
2018-06-30T00:57:45.057Z,16.50
2018-06-30T01:00:13.510Z,16.40
2018-06-30T01:02:41.944Z,16.40
2018-06-30T01:05:10.425Z,16.30
2018-06-30T01:07:38.866Z,16.30
2018-06-30T01:10:07.411Z,16.20
2018-06-30T01:12:35.842Z,16.10
2018-06-30T01:15:04.354Z,16.10
2018-06-30T01:17:32.775Z,16.10
2018-06-30T01:20:01.208Z,16.10
2018-06-30T01:22:29.637Z,16.10
2018-06-30T01:24:58.065Z,16.10
2018-06-30T01:27:26.540Z,16.10
2018-06-30T01:29:55.017Z,16.10
2018-06-30T01:32:23.485Z,16.00
2018-06-30T01:34:51.889Z,15.90
2018-06-30T01:37:20.349Z,15.90
2018-06-30T01:42:16.877Z,15.90
2018-06-30T01:44:45.313Z,15.90
2018-06-30T01:47:13.742Z,15.90
2018-06-30T01:49:42.165Z,15.80
2018-06-30T01:52:10.597Z,15.80
2018-06-30T01:54:39.039Z,15.90
2018-06-30T01:57:07.531Z,15.90
2018-06-30T01:59:35.974Z,15.90
2018-06-30T02:02:04.546Z,15.80
2018-06-30T02:04:32.973Z,15.80
2018-06-30T02:07:01.423Z,15.70
2018-06-30T02:09:29.843Z,15.70
2018-06-30T02:11:58.296Z,15.70
2018-06-30T02:14:26.722Z,15.60
2018-06-30T02:16:55.132Z,15.60
2018-06-30T02:19:23.577Z,15.60
2018-06-30T02:21:51.989Z,15.50
2018-06-30T02:24:20.471Z,15.50
2018-06-30T02:26:48.895Z,15.50
2018-06-30T02:29:17.376Z,15.50
2018-06-30T02:31:45.823Z,15.40
2018-06-30T02:34:14.292Z,15.40
2018-06-30T02:36:42.762Z,15.40
2018-06-30T02:41:39.534Z,15.40
2018-06-30T02:44:08.023Z,15.40
2018-06-30T02:46:36.498Z,15.40
2018-06-30T02:49:05.133Z,15.30
2018-06-30T02:51:33.578Z,15.30
2018-06-30T02:54:02.025Z,15.20
2018-06-30T02:56:30.435Z,15.20
2018-06-30T02:58:58.854Z,15.10
2018-06-30T03:01:27.290Z,15.10
2018-06-30T03:03:55.718Z,15.10
2018-06-30T03:06:24.141Z,15.10
2018-06-30T03:08:52.574Z,15.00
2018-06-30T03:11:21.026Z,15.00
2018-06-30T03:13:49.446Z,15.00
2018-06-30T03:16:18.271Z,15.00
2018-06-30T03:18:47.950Z,14.90
2018-06-30T03:23:44.529Z,14.90
2018-06-30T03:26:13.009Z,14.90
2018-06-30T03:28:41.448Z,14.80
2018-06-30T03:31:09.929Z,14.80
2018-06-30T03:33:38.329Z,14.90
2018-06-30T03:38:34.933Z,14.80
2018-06-30T03:43:31.483Z,14.80
2018-06-30T03:45:59.941Z,14.90
2018-06-30T03:48:28.385Z,14.80
2018-06-30T03:50:56.830Z,14.80
2018-06-30T03:53:25.245Z,14.80
2018-06-30T03:55:53.716Z,14.80
2018-06-30T03:58:22.133Z,14.80
2018-06-30T04:00:50.604Z,14.90
2018-06-30T04:03:19.022Z,14.90
2018-06-30T04:05:47.458Z,14.90
2018-06-30T04:08:15.899Z,14.90
2018-06-30T04:10:44.330Z,15.00
2018-06-30T04:13:12.779Z,15.00
2018-06-30T04:15:41.189Z,15.00
2018-06-30T04:18:09.624Z,15.10
2018-06-30T04:20:38.050Z,15.10
2018-06-30T04:23:06.510Z,15.20
2018-06-30T04:28:03.173Z,15.40
2018-06-30T04:30:31.637Z,15.50
2018-06-30T04:35:28.242Z,15.60
2018-06-30T04:37:56.742Z,15.70
2018-06-30T04:40:25.192Z,15.80
2018-06-30T04:42:53.643Z,15.80
2018-06-30T04:45:22.065Z,15.90
2018-06-30T04:47:50.512Z,15.90
2018-06-30T04:50:18.945Z,16.00
2018-06-30T04:52:47.406Z,16.00
2018-06-30T04:55:15.883Z,16.10
2018-06-30T04:57:44.423Z,16.20
2018-06-30T05:00:12.867Z,16.20
2018-06-30T05:02:41.302Z,16.30
2018-06-30T05:05:09.781Z,16.40
2018-06-30T05:07:38.207Z,16.50
2018-06-30T05:10:06.698Z,16.60
2018-06-30T05:15:03.347Z,16.80
2018-06-30T05:17:31.826Z,16.80
2018-06-30T05:20:00.305Z,16.90
2018-06-30T05:22:28.982Z,17.00
2018-06-30T05:24:57.422Z,17.10
2018-06-30T05:27:25.875Z,17.10
2018-06-30T05:29:54.453Z,17.20
2018-06-30T05:34:51.296Z,17.40
2018-06-30T05:37:19.763Z,17.40
2018-06-30T05:39:48.238Z,17.60
2018-06-30T05:42:16.673Z,17.70
2018-06-30T05:44:45.126Z,17.90
2018-06-30T05:49:41.739Z,18.20
2018-06-30T05:52:10.425Z,18.30
2018-06-30T05:54:39.067Z,18.40
2018-06-30T05:57:08.033Z,18.50
2018-06-30T06:02:04.641Z,18.60
2018-06-30T06:04:33.074Z,18.80
2018-06-30T06:09:29.965Z,19.00
2018-06-30T06:11:58.418Z,19.10
2018-06-30T06:14:26.839Z,19.20
2018-06-30T06:16:55.269Z,19.50
2018-06-30T06:19:23.684Z,19.60
2018-06-30T06:21:52.118Z,19.80
2018-06-30T06:26:48.717Z,20.10
2018-06-30T06:29:17.157Z,20.30
2018-06-30T06:34:13.853Z,20.60
2018-06-30T06:36:42.346Z,20.80
2018-06-30T06:39:11.389Z,20.90
2018-06-30T06:44:08.377Z,21.20
2018-06-30T06:46:36.818Z,21.30
2018-06-30T06:49:05.303Z,21.40
2018-06-30T06:51:33.751Z,21.50
2018-06-30T06:54:02.278Z,21.70
2018-06-30T06:58:58.878Z,21.80
2018-06-30T07:01:27.466Z,21.90
2018-06-30T07:03:55.905Z,22.00
2018-06-30T07:06:24.337Z,22.10
2018-06-30T07:08:52.797Z,22.20
2018-06-30T07:11:21.223Z,22.30
2018-06-30T07:16:18.217Z,22.30
2018-06-30T07:18:46.699Z,22.40
2018-06-30T07:21:15.150Z,22.60
2018-06-30T07:26:11.718Z,22.80
2018-06-30T07:28:40.179Z,22.90
2018-06-30T07:31:08.638Z,23.00
2018-06-30T07:33:37.046Z,23.00
2018-06-30T07:36:05.580Z,23.10
2018-06-30T07:38:34.028Z,23.20
2018-06-30T07:41:02.490Z,23.10
2018-06-30T07:43:30.934Z,23.20
2018-06-30T07:45:59.372Z,23.30
2018-06-30T07:48:27.832Z,23.50
2018-06-30T07:50:56.269Z,23.60
2018-06-30T07:53:24.683Z,23.80
2018-06-30T07:55:53.170Z,23.90
2018-06-30T07:58:21.637Z,23.90
2018-06-30T08:03:18.210Z,24.10
2018-06-30T08:05:46.736Z,24.20
2018-06-30T08:08:15.145Z,24.10
2018-06-30T08:13:11.976Z,24.10
2018-06-30T08:15:40.406Z,24.40
2018-06-30T08:18:08.941Z,24.60
2018-06-30T08:20:37.478Z,24.70
2018-06-30T08:23:06.096Z,24.80
2018-06-30T08:25:35.208Z,24.90
2018-06-30T08:28:03.701Z,24.90
2018-06-30T08:30:32.151Z,25.00
2018-06-30T08:33:00.586Z,24.90
2018-06-30T08:35:29.024Z,24.70
2018-06-30T08:37:57.478Z,24.70
2018-06-30T08:40:25.877Z,24.60
2018-06-30T08:42:54.309Z,24.90
2018-06-30T08:45:22.730Z,24.90
2018-06-30T08:47:51.161Z,25.10
2018-06-30T08:50:19.621Z,25.40
2018-06-30T08:52:48.056Z,25.40
2018-06-30T08:55:16.489Z,25.80
2018-06-30T08:57:44.918Z,25.90
2018-06-30T09:00:13.346Z,26.00
2018-06-30T09:02:41.774Z,26.10
2018-06-30T09:05:10.206Z,26.30
2018-06-30T09:10:06.810Z,26.60
2018-06-30T09:12:35.218Z,26.50
2018-06-30T09:15:03.799Z,26.80
2018-06-30T09:17:32.214Z,26.30
2018-06-30T09:20:00.654Z,25.90
2018-06-30T09:22:29.090Z,26.10
2018-06-30T09:24:57.537Z,26.40
2018-06-30T09:29:54.148Z,26.90
2018-06-30T09:32:22.573Z,26.50
2018-06-30T09:34:51.017Z,26.40
2018-06-30T09:37:19.461Z,27.00
2018-06-30T09:39:47.946Z,27.20
2018-06-30T09:42:16.370Z,27.70
2018-06-30T09:44:44.889Z,28.10
2018-06-30T09:47:13.253Z,27.90
2018-06-30T09:49:41.659Z,28.10
2018-06-30T09:52:10.117Z,28.00
2018-06-30T09:54:38.530Z,27.90
2018-06-30T09:57:06.997Z,27.10
2018-06-30T09:59:35.454Z,27.60
2018-06-30T10:02:03.961Z,28.10
2018-06-30T10:04:32.394Z,28.50
2018-06-30T10:07:00.838Z,28.90
2018-06-30T10:09:29.274Z,29.40
2018-06-30T10:11:57.741Z,29.40
2018-06-30T10:19:22.522Z,30.10
2018-06-30T10:21:50.945Z,29.10
2018-06-30T10:26:47.556Z,30.30
2018-06-30T10:29:15.988Z,29.90
2018-06-30T10:31:44.438Z,29.70
2018-06-30T10:34:12.893Z,29.40
2018-06-30T10:36:41.375Z,29.90
2018-06-30T10:39:11.242Z,30.50
2018-06-30T10:41:40.002Z,31.00
2018-06-30T10:44:08.562Z,30.90
2018-06-30T10:46:37.095Z,31.80
2018-06-30T10:49:06.551Z,30.70
2018-06-30T10:51:34.979Z,31.30
2018-06-30T10:54:03.463Z,31.60
2018-06-30T10:56:31.881Z,29.90
2018-06-30T10:59:00.850Z,31.10
2018-06-30T11:01:29.263Z,32.10
2018-06-30T11:03:57.814Z,31.60
2018-06-30T11:06:26.222Z,32.40
2018-06-30T11:08:54.731Z,33.20
2018-06-30T11:13:51.313Z,33.50
2018-06-30T11:16:19.762Z,31.90
2018-06-30T11:18:48.218Z,33.00
2018-06-30T11:21:16.637Z,33.90
2018-06-30T11:23:45.087Z,33.60
2018-06-30T11:26:13.547Z,33.20
2018-06-30T11:28:41.965Z,33.40
2018-06-30T11:33:38.598Z,34.00
2018-06-30T11:36:07.017Z,33.40
2018-06-30T11:38:35.454Z,32.80
2018-06-30T11:41:03.910Z,32.70
2018-06-30T11:43:32.314Z,33.20
2018-06-30T11:46:00.761Z,33.80
2018-06-30T11:48:29.217Z,33.30
2018-06-30T11:50:57.677Z,33.60
2018-06-30T11:53:26.106Z,33.00
2018-06-30T11:55:54.596Z,32.60
2018-06-30T11:58:22.997Z,31.90
2018-06-30T12:00:51.431Z,32.00
2018-06-30T12:03:19.849Z,32.60
2018-06-30T12:05:48.315Z,32.40
2018-06-30T12:08:16.718Z,31.20
2018-06-30T12:10:45.156Z,31.20
2018-06-30T12:13:13.601Z,31.30
2018-06-30T12:15:42.042Z,30.20
2018-06-30T12:18:10.504Z,29.90
2018-06-30T12:20:39.035Z,30.90
2018-06-30T12:23:07.455Z,30.80
2018-06-30T12:25:35.883Z,30.90
2018-06-30T12:28:04.336Z,30.70
2018-06-30T12:30:32.814Z,31.30
2018-06-30T12:33:01.239Z,31.40
2018-06-30T12:35:29.671Z,29.90
2018-06-30T12:37:58.129Z,30.60
2018-06-30T12:40:26.565Z,31.30
2018-06-30T12:45:23.093Z,31.60
2018-06-30T12:47:51.562Z,31.30
2018-06-30T12:50:20.007Z,31.80
2018-06-30T12:52:48.457Z,31.50
2018-06-30T12:57:45.034Z,32.00
2018-06-30T13:00:13.462Z,32.40
2018-06-30T13:02:41.917Z,30.70
2018-06-30T13:05:10.407Z,30.80
2018-06-30T13:07:38.845Z,31.40
2018-06-30T13:10:07.317Z,32.40
2018-06-30T13:12:35.819Z,32.50
2018-06-30T13:15:04.322Z,32.80
2018-06-30T13:17:32.795Z,32.20
2018-06-30T13:20:01.254Z,32.50
2018-06-30T13:22:30.233Z,32.40
2018-06-30T13:24:58.686Z,32.40
2018-06-30T13:27:27.130Z,32.60
2018-06-30T13:29:55.703Z,33.70
2018-06-30T13:32:24.126Z,34.20
2018-06-30T13:34:52.594Z,33.50
2018-06-30T13:37:21.076Z,31.80
2018-06-30T13:39:49.597Z,33.10
2018-06-30T13:42:18.054Z,35.30
2018-06-30T13:47:14.691Z,32.10
2018-06-30T13:49:43.637Z,33.30
2018-06-30T13:52:12.111Z,35.90
2018-06-30T13:54:40.658Z,37.30
2018-06-30T13:57:09.131Z,37.60
2018-06-30T13:59:37.653Z,37.60
2018-06-30T14:02:06.276Z,37.50
2018-06-30T14:04:34.703Z,37.40
2018-06-30T14:07:03.183Z,38.70
2018-06-30T14:09:31.636Z,39.50
2018-06-30T14:12:00.467Z,39.90
2018-06-30T14:14:28.921Z,37.70
2018-06-30T14:19:25.507Z,39.20
2018-06-30T14:21:53.991Z,39.30
2018-06-30T14:24:22.437Z,38.40
2018-06-30T14:29:19.072Z,38.80
2018-06-30T14:31:47.517Z,39.10
2018-06-30T14:34:15.937Z,38.00
2018-06-30T14:36:44.389Z,39.10
2018-06-30T14:39:13.429Z,38.80
2018-06-30T14:41:41.943Z,38.40
2018-06-30T14:44:10.422Z,37.50
2018-06-30T14:46:38.869Z,38.60
2018-06-30T14:49:07.286Z,37.80
2018-06-30T14:51:36.350Z,39.10
2018-06-30T14:54:04.829Z,38.60
2018-06-30T14:56:33.295Z,36.60
2018-06-30T14:59:01.713Z,37.30
2018-06-30T15:01:30.253Z,38.60
2018-06-30T15:06:26.808Z,40.00
2018-06-30T15:08:55.229Z,40.40
2018-06-30T15:11:23.694Z,38.00
2018-06-30T15:13:52.147Z,38.30
2018-06-30T15:18:48.723Z,39.10
2018-06-30T15:21:17.691Z,38.80
2018-06-30T15:23:46.185Z,35.90
2018-06-30T15:26:14.669Z,35.90
2018-06-30T15:28:43.081Z,36.80
2018-06-30T15:31:11.554Z,38.40
2018-06-30T15:33:39.970Z,37.20
2018-06-30T15:36:08.543Z,36.90
2018-06-30T15:38:36.901Z,37.70
2018-06-30T15:41:05.384Z,37.30
2018-06-30T15:43:33.821Z,38.70
2018-06-30T15:46:02.266Z,37.70
2018-06-30T15:48:30.734Z,37.00
2018-06-30T15:50:59.206Z,34.20
2018-06-30T15:53:27.657Z,32.20
2018-06-30T15:55:56.093Z,31.20
2018-06-30T15:58:24.577Z,30.30
2018-06-30T16:03:21.194Z,29.50
2018-06-30T16:05:49.609Z,29.20
2018-06-30T16:08:18.174Z,29.00
2018-06-30T16:10:46.657Z,28.70
2018-06-30T16:13:15.105Z,28.80
2018-06-30T16:15:43.563Z,28.60
2018-06-30T16:18:12.014Z,28.80
2018-06-30T16:23:08.739Z,29.80
2018-06-30T16:25:37.103Z,30.50
2018-06-30T16:28:06.021Z,30.00
2018-06-30T16:30:34.507Z,28.90
2018-06-30T16:35:31.278Z,28.20
2018-06-30T16:38:00.726Z,28.20
2018-06-30T16:40:29.145Z,28.20
2018-06-30T16:42:57.666Z,27.90
2018-06-30T16:45:26.103Z,27.80
2018-06-30T16:47:54.574Z,27.60
2018-06-30T16:50:23.018Z,27.40
2018-06-30T16:52:51.473Z,27.30
2018-06-30T16:55:19.893Z,27.40
2018-06-30T16:57:48.345Z,27.40
2018-06-30T17:00:16.839Z,27.30
2018-06-30T17:02:45.273Z,27.30
2018-06-30T17:05:13.760Z,27.00
2018-06-30T17:10:10.346Z,26.80
2018-06-30T17:12:38.805Z,26.80
2018-06-30T17:15:07.808Z,26.80
2018-06-30T17:17:36.282Z,26.80
2018-06-30T17:20:05.025Z,26.70
2018-06-30T17:22:33.433Z,26.60
2018-06-30T17:25:01.877Z,26.60
2018-06-30T17:27:30.314Z,26.50
2018-06-30T17:29:58.795Z,26.50
2018-06-30T17:32:27.252Z,26.50
2018-06-30T17:34:55.729Z,26.30
2018-06-30T17:39:52.308Z,26.20
2018-06-30T17:42:20.743Z,26.10
2018-06-30T17:44:49.242Z,26.10
2018-06-30T17:47:17.721Z,26.10
2018-06-30T17:52:14.363Z,26.00
2018-06-30T17:54:42.830Z,26.00
2018-06-30T17:57:11.270Z,26.00
2018-06-30T17:59:39.749Z,25.90
2018-06-30T18:02:08.198Z,25.80
2018-06-30T18:04:36.646Z,25.80
2018-06-30T18:07:05.297Z,25.70
2018-06-30T18:09:33.700Z,25.60
2018-06-30T18:12:02.167Z,25.60
2018-06-30T18:14:30.582Z,25.60
2018-06-30T18:16:59.125Z,25.50
2018-06-30T18:19:27.554Z,25.40
2018-06-30T18:21:56.023Z,25.30
2018-06-30T18:24:24.449Z,25.30
2018-06-30T18:26:52.915Z,25.20
2018-06-30T18:29:21.383Z,25.20
2018-06-30T18:31:49.826Z,25.10
2018-06-30T18:34:18.718Z,25.00
2018-06-30T18:36:47.247Z,25.00
2018-06-30T18:39:15.761Z,24.90
2018-06-30T18:41:44.221Z,24.80
2018-06-30T18:44:12.698Z,24.70
2018-06-30T18:46:41.192Z,24.60
2018-06-30T18:49:09.649Z,24.60
2018-06-30T18:51:38.109Z,24.50
2018-06-30T18:54:07.330Z,24.40
2018-06-30T18:56:35.827Z,24.40
2018-06-30T18:59:04.301Z,24.40
2018-06-30T19:01:32.767Z,24.30
2018-06-30T19:04:01.219Z,24.20
2018-06-30T19:08:58.015Z,24.10
2018-06-30T19:11:26.453Z,24.00
2018-06-30T19:18:51.238Z,23.80
2018-06-30T19:21:19.753Z,23.70
2018-06-30T19:23:48.186Z,23.60
2018-06-30T19:26:16.638Z,23.40
2018-06-30T19:28:45.085Z,23.30
2018-06-30T19:31:13.665Z,23.20
2018-06-30T19:33:42.114Z,23.20
2018-06-30T19:36:10.542Z,23.10
2018-06-30T19:38:38.998Z,23.00
2018-06-30T19:41:07.522Z,22.90
2018-06-30T19:43:36.042Z,22.80
2018-06-30T19:46:04.479Z,22.70
2018-06-30T19:51:01.134Z,22.70
2018-06-30T19:53:29.622Z,22.70
2018-06-30T19:55:58.102Z,22.70
2018-06-30T19:58:26.577Z,22.60
2018-06-30T20:05:51.344Z,22.50
2018-06-30T20:08:19.788Z,22.40
2018-06-30T20:10:49.131Z,22.30
2018-06-30T20:13:17.598Z,22.30
2018-06-30T20:15:46.073Z,22.20
2018-06-30T20:18:14.523Z,22.10
2018-06-30T20:20:43.006Z,22.00
2018-06-30T20:23:11.460Z,21.90
2018-06-30T20:25:39.937Z,21.90
2018-06-30T20:28:08.513Z,22.30
2018-06-30T20:30:36.955Z,22.50
2018-06-30T20:33:05.474Z,22.60
2018-06-30T20:35:33.958Z,22.80
2018-06-30T20:38:02.401Z,23.00
2018-06-30T20:40:30.873Z,23.20
2018-06-30T20:42:59.330Z,23.30
2018-06-30T20:45:27.852Z,23.30
2018-06-30T20:47:56.307Z,23.40
2018-06-30T20:50:24.822Z,23.40
2018-06-30T20:52:53.296Z,23.40
2018-06-30T20:55:21.736Z,23.30
2018-06-30T20:57:50.192Z,23.00
2018-06-30T21:02:50.126Z,22.80
2018-06-30T21:05:18.566Z,22.60
2018-06-30T21:07:47.042Z,22.60
2018-06-30T21:10:15.462Z,22.80
2018-06-30T21:12:43.918Z,23.00
2018-06-30T21:15:12.368Z,23.00
2018-06-30T21:17:40.960Z,23.20
2018-06-30T21:20:09.375Z,23.20
2018-06-30T21:25:06.224Z,23.00
2018-06-30T21:27:34.709Z,22.80
2018-06-30T21:32:31.393Z,22.70
2018-06-30T21:34:59.841Z,22.40
2018-06-30T21:37:28.326Z,22.20
2018-06-30T21:39:56.757Z,21.80
2018-06-30T21:42:25.208Z,21.30
2018-06-30T21:44:53.680Z,20.90
2018-06-30T21:47:22.125Z,20.70
2018-06-30T21:49:50.622Z,20.50
2018-06-30T21:52:19.062Z,20.50
2018-06-30T21:54:47.540Z,20.30
2018-06-30T21:57:15.967Z,20.20
2018-06-30T21:59:44.451Z,20.20
2018-06-30T22:02:12.930Z,20.20
2018-06-30T22:04:41.426Z,20.10
2018-06-30T22:09:38.066Z,20.00
2018-06-30T22:12:06.578Z,19.90
2018-06-30T22:14:35.046Z,19.90
2018-06-30T22:17:03.517Z,19.80
2018-06-30T22:19:31.997Z,19.70
2018-06-30T22:24:28.635Z,19.60
2018-06-30T22:26:57.093Z,19.50
2018-06-30T22:29:25.598Z,19.50
2018-06-30T22:31:54.683Z,19.40
2018-06-30T22:34:23.137Z,19.30
2018-06-30T22:36:51.720Z,19.30
2018-06-30T22:39:31.348Z,19.30
2018-06-30T22:41:59.805Z,19.20
2018-06-30T22:44:28.830Z,19.10
2018-06-30T22:46:57.293Z,19.00
2018-06-30T22:49:25.757Z,19.00
2018-06-30T22:51:54.333Z,18.90
2018-06-30T22:56:50.954Z,18.70
2018-06-30T22:59:19.386Z,18.70
2018-06-30T23:01:47.852Z,18.60
2018-06-30T23:04:16.410Z,18.60
2018-06-30T23:09:13.009Z,18.50
2018-06-30T23:11:41.473Z,18.40
2018-06-30T23:14:09.948Z,18.40
2018-06-30T23:16:38.449Z,18.40
2018-06-30T23:19:06.874Z,18.30
2018-06-30T23:21:35.340Z,18.30
2018-06-30T23:24:03.801Z,18.30
2018-06-30T23:26:32.278Z,18.20
2018-06-30T23:29:00.730Z,18.20
2018-06-30T23:31:29.338Z,18.10
2018-06-30T23:33:57.775Z,18.10
2018-06-30T23:38:54.374Z,18.00
2018-06-30T23:41:22.904Z,17.90
2018-06-30T23:43:51.441Z,17.80
2018-06-30T23:46:19.920Z,17.80
2018-06-30T23:48:48.371Z,17.80
2018-06-30T23:51:16.821Z,17.80
2018-06-30T23:56:13.383Z,17.60
2018-06-30T23:58:41.864Z,17.60
